KCEC/CEC METAR and TAF weather

Enter ICAO airport designator
Station Type Date Time Source
KCEC METAR 2019/08/18 19:56 UTC NOAA

KCEC 181956Z AUTO 18008KT 10SM OVC006 15/12 A2991 RMK AO2 SLP129 T01500122


Station Type Date Time Source
KCEC Decoded METAR 2019/08/18 19:56 UTC NOAA

Station name not available
Aug 18, 2019 - 03:56 PM EDT / 2019.08.18 1956 UTC
Wind: from the S (180 degrees) at 9 MPH (8 KT):0
Visibility: 10 mile(s):0
Sky conditions: overcast
Temperature: 59.0 F (15.0 C)
Dew Point: 54.0 F (12.2 C)
Relative Humidity: 83%
Pressure (altimeter): 29.91 in. Hg (1012 hPa)
ob: KCEC 181956Z AUTO 18008KT 10SM OVC006 15/12 A2991 RMK AO2 SLP129 T01500122
cycle: 20

Station Type Date Time Source
KCEC TAF 2019/08/18 18:45 UTC NOAA

TAF KCEC 181743Z 1818/1918 20005KT P6SM BKN006
TEMPO 1818/1820 3SM BR OVC006
FM182000 20008KT P6SM SCT006
FM190100 26003KT 6SM BR BKN008
FM190700 VRB03KT 3SM BR OVC004
FM191700 21006KT 6SM BR BKN006

Example: see airport list